Time;durP1;ratioP1;P1;durP2;ratioP2;P2;SDS_P1;SDS_P2;PMS_P1;PMS_P2;Temp;Humidity;BMP_temperature;BMP_pressure;BME280_temperature;BME280_humidity;BME280_pressure;Samples;Min_cycle;Max_cycle;Signal;HPM_P1;HPM_P2
2022/07/18 16:07:46;;;;;;;;;;;;;;;24.58;50.39;101690.94;1042082;27;4243;-66
2022/07/18 16:08:36;;;;;;;;;;;;;;;25.07;49.22;101696.41;1047610;28;693;-67
2022/07/18 16:09:27;;;;;;;;;;;;;;;25.41;48.08;101693.41;1047904;28;701;-65
2022/07/18 16:10:17;;;;;;;;;;;;;;;25.62;47.58;101692.81;1047486;28;657;-65
2022/07/18 16:11:08;;;;;;;;;;;;;;;25.73;47.41;101700.63;1047680;28;757;-65
2022/07/18 16:11:58;;;;;;;;;;;;;;;25.78;47.45;101695.50;1047841;28;968;-65
2022/07/18 16:12:49;;;;;;;;;;;;;;;25.79;47.33;101691.75;1047640;28;650;-65
2022/07/18 16:13:39;;;;;;;;;;;;;;;25.85;46.99;101696.47;1047819;28;650;-65
2022/07/18 16:14:29;;;;;;;;;;;;;;;25.89;46.98;101694.25;1047449;28;724;-65
2022/07/18 16:15:20;;;;;;;;;;;;;;;25.87;47.00;101694.41;1047699;28;628;-66
2022/07/18 16:16:10;;;;;;;;;;;;;;;25.88;47.13;101698.00;1047834;28;633;-65
2022/07/18 16:17:01;;;;;;;;;;;;;;;25.90;46.88;101695.94;1047749;28;689;-65
2022/07/18 16:17:51;;;;;;;;;;;;;;;25.92;46.93;101696.63;1047876;28;741;-65
2022/07/18 16:18:41;;;;;;;;;;;;;;;25.90;46.91;101683.13;1047504;28;622;-65
2022/07/18 16:19:32;;;;;;;;;;;;;;;25.89;46.63;101683.31;1047798;28;729;-66
2022/07/18 16:20:22;;;;;;;;;;;;;;;25.93;46.74;101680.06;1047478;28;686;-65
2022/07/18 16:21:13;;;;;;;;;;;;;;;25.93;46.56;101685.50;1047634;28;661;-66
2022/07/18 16:22:04;;;;;;;;;;;;;;;25.95;46.57;101682.59;1047783;28;653;-65
2022/07/18 16:22:54;;;;;;;;;;;;;;;25.94;46.67;101675.44;1047267;28;716;-65
2022/07/18 16:23:44;;;;;;;;;;;;;;;25.96;46.62;101684.31;1047486;28;662;-66
2022/07/18 16:24:35;;;;;;;;;;;;;;;25.97;46.44;101680.56;1047685;28;692;-65
2022/07/18 16:25:25;;;;;;;;;;;;;;;25.95;46.72;101682.59;1048109;28;697;-65
2022/07/18 16:26:16;;;;;;;;;;;;;;;25.96;46.54;101683.47;1044061;28;1412;-66
2022/07/18 16:27:06;;;;;;;;;;;;;;;25.96;46.54;101678.00;1047218;28;759;-65
2022/07/18 16:27:57;;;;;;;;;;;;;;;25.97;46.84;101680.56;1046534;28;1531;-66
2022/07/18 16:28:47;;;;;;;;;;;;;;;25.98;46.59;101676.75;1041833;28;1602;-65
2022/07/18 16:29:38;;;;;;;;;;;;;;;25.98;46.55;101675.94;1045440;28;1020;-65
2022/07/18 16:30:28;;;;;;;;;;;;;;;26.00;46.40;101682.03;1046555;28;837;-66
2022/07/18 16:31:18;;;;;;;;;;;;;;;25.99;46.54;101683.06;1048131;28;662;-66
2022/07/18 16:32:09;;;;;;;;;;;;;;;26.02;46.33;101678.09;1048734;28;661;-67
2022/07/18 16:32:59;;;;;;;;;;;;;;;26.03;46.37;101677.06;1048148;28;941;-67
2022/07/18 16:33:50;;;;;;;;;;;;;;;26.02;46.47;101671.78;1047532;28;1566;-67
2022/07/18 16:34:41;;;;;;;;;;;;;;;26.00;46.47;101673.84;1053562;28;1097;-67
2022/07/18 16:35:31;;;;;;;;;;;;;;;26.00;46.45;101669.25;1054273;28;1365;-67
2022/07/18 16:36:22;;;;;;;;;;;;;;;25.98;46.59;101670.47;1053515;28;1086;-67
2022/07/18 16:37:12;;;;;;;;;;;;;;;26.01;46.66;101672.81;1049841;28;1105;-67
2022/07/18 16:38:02;;;;;;;;;;;;;;;26.01;46.67;101670.09;1047604;28;697;-65
2022/07/18 16:38:53;;;;;;;;;;;;;;;26.04;46.46;101667.00;1049927;28;1285;-67
2022/07/18 16:39:43;;;;;;;;;;;;;;;26.03;46.58;101663.41;1055970;28;713;-67
2022/07/18 16:40:34;;;;;;;;;;;;;;;26.02;46.48;101666.31;1053811;28;1097;-67
2022/07/18 16:41:24;;;;;;;;;;;;;;;26.05;46.52;101663.25;1052353;28;692;-65
2022/07/18 16:42:14;;;;;;;;;;;;;;;26.06;46.43;101662.22;1052126;28;1166;-66
2022/07/18 16:43:05;;;;;;;;;;;;;;;26.07;46.69;101659.31;1051754;28;686;-66
2022/07/18 16:43:55;;;;;;;;;;;;;;;26.07;46.36;101662.03;1052201;28;1094;-66
2022/07/18 16:44:46;;;;;;;;;;;;;;;26.11;46.40;101662.53;1046708;28;637;-65
2022/07/18 16:45:37;;;;;;;;;;;;;;;26.08;46.44;101660.16;1046161;28;1124;-66
2022/07/18 16:46:27;;;;;;;;;;;;;;;26.10;46.43;101664.41;1047483;28;643;-67
2022/07/18 16:47:18;;;;;;;;;;;;;;;26.10;46.58;101655.34;1048955;28;1142;-67
2022/07/18 16:48:08;;;;;;;;;;;;;;;26.08;46.47;101655.53;1052246;28;666;-67
2022/07/18 16:48:59;;;;;;;;;;;;;;;26.08;46.75;101655.53;1046730;28;1154;-66
2022/07/18 16:49:49;;;;;;;;;;;;;;;26.07;46.44;101652.97;1047897;28;609;-66
2022/07/18 16:50:40;;;;;;;;;;;;;;;26.06;46.39;101648.56;1049437;28;1162;-66
2022/07/18 16:51:30;;;;;;;;;;;;;;;26.09;46.53;101653.66;1051873;28;709;-66
2022/07/18 16:52:21;;;;;;;;;;;;;;;26.09;46.44;101651.78;1051177;28;1087;-67
2022/07/18 16:53:11;;;;;;;;;;;;;;;26.10;46.65;101658.09;1053406;28;669;-66
2022/07/18 16:54:02;;;;;;;;;;;;;;;26.09;46.41;101659.13;1052026;28;1015;-67
2022/07/18 16:54:52;;;;;;;;;;;;;;;26.13;46.35;101661.31;1052259;28;653;-67
2022/07/18 16:55:43;;;;;;;;;;;;;;;26.11;46.60;101654.31;1050965;28;1146;-66
2022/07/18 16:56:33;;;;;;;;;;;;;;;26.09;46.59;101651.78;1052274;28;669;-66
2022/07/18 16:57:23;;;;;;;;;;;;;;;26.12;46.73;101653.31;1050959;28;1970;-67
2022/07/18 16:58:14;;;;;;;;;;;;;;;26.12;46.49;101647.84;1051619;28;893;-66
2022/07/18 16:59:04;;;;;;;;;;;;;;;26.16;46.80;101652.72;1052192;28;657;-67
2022/07/18 16:59:55;;;;;;;;;;;;;;;26.17;46.51;101648.97;1052288;28;661;-65
2022/07/18 17:00:45;;;;;;;;;;;;;;;26.20;46.30;101645.88;1051184;28;709;-67
2022/07/18 17:01:36;;;;;;;;;;;;;;;26.17;46.40;101653.59;1051678;28;681;-66
2022/07/18 17:02:26;;;;;;;;;;;;;;;26.15;46.65;101648.31;1051580;28;729;-65
2022/07/18 17:03:17;;;;;;;;;;;;;;;26.19;46.44;101651.53;1052267;28;692;-65
2022/07/18 17:04:07;;;;;;;;;;;;;;;26.16;46.46;101658.19;1053200;28;701;-66
2022/07/18 17:04:57;;;;;;;;;;;;;;;26.19;46.47;101654.25;1051933;28;1461;-66
2022/07/18 17:05:48;;;;;;;;;;;;;;;26.18;46.54;101655.28;1052231;28;682;-66
2022/07/18 17:06:38;;;;;;;;;;;;;;;26.17;46.59;101648.13;1049053;28;646;-66
2022/07/18 17:07:29;;;;;;;;;;;;;;;26.19;46.50;101646.06;1043448;28;1188;-66
2022/07/18 17:08:20;;;;;;;;;;;;;;;26.21;46.60;101649.47;1047455;28;653;-65
2022/07/18 17:09:11;;;;;;;;;;;;;;;26.28;46.37;101655.91;1049673;28;1639;-65
2022/07/18 17:10:01;;;;;;;;;;;;;;;26.24;46.38;101649.94;1048477;28;666;-66
2022/07/18 17:10:52;;;;;;;;;;;;;;;26.25;46.62;101654.38;1050188;28;1229;-65
2022/07/18 17:11:42;;;;;;;;;;;;;;;26.24;46.67;101646.38;1047917;28;1161;-65
2022/07/18 17:12:34;;;;;;;;;;;;;;;26.26;46.52;101636.09;1051151;28;908;-67
2022/07/18 17:13:25;;;;;;;;;;;;;;;26.31;46.37;101649.25;1049994;28;1062;-65
2022/07/18 17:14:16;;;;;;;;;;;;;;;26.25;46.45;101648.06;1052247;28;680;-65
2022/07/18 17:15:07;;;;;;;;;;;;;;;26.25;46.48;101645.34;1050686;28;1007;-66
2022/07/18 17:15:57;;;;;;;;;;;;;;;26.30;46.30;101640.22;1048492;28;716;-66
2022/07/18 17:16:48;;;;;;;;;;;;;;;26.27;46.53;101637.81;1047880;28;973;-66
2022/07/18 17:17:38;;;;;;;;;;;;;;;26.25;46.60;101648.06;1047887;28;1910;-66
2022/07/18 17:18:29;;;;;;;;;;;;;;;26.23;46.65;101645.50;1048242;28;882;-66
2022/07/18 17:19:19;;;;;;;;;;;;;;;26.25;46.68;101648.91;1044736;28;1178;-66
2022/07/18 17:20:09;;;;;;;;;;;;;;;26.27;46.41;101654.22;1047696;28;1030;-66
2022/07/18 17:21:00;;;;;;;;;;;;;;;26.27;46.40;101632.34;1048830;28;1038;-66
2022/07/18 17:21:50;;;;;;;;;;;;;;;26.34;46.48;101638.78;1046689;28;1111;-66
2022/07/18 17:22:41;;;;;;;;;;;;;;;26.34;46.54;101637.94;1044933;28;1263;-66
2022/07/18 17:23:31;;;;;;;;;;;;;;;26.31;46.65;101644.66;1045503;28;1120;-66
2022/07/18 17:24:22;;;;;;;;;;;;;;;26.31;46.72;101639.19;1048364;28;1243;-66
2022/07/18 17:25:14;;;;;;;;;;;;;;;26.31;46.61;101636.44;1046287;28;1311;-66
2022/07/18 17:26:05;;;;;;;;;;;;;;;26.30;46.56;101648.41;1049095;28;1195;-66
2022/07/18 17:26:55;;;;;;;;;;;;;;;26.31;46.61;101636.44;1046033;28;1156;-66
2022/07/18 17:27:46;;;;;;;;;;;;;;;26.31;46.50;101639.19;1049178;28;1239;-66
2022/07/18 17:28:36;;;;;;;;;;;;;;;26.32;46.60;101629.94;1048983;28;1331;-66
2022/07/18 17:29:27;;;;;;;;;;;;;;;26.32;46.49;101640.88;1049046;28;1170;-66
2022/07/18 17:30:17;;;;;;;;;;;;;;;26.30;46.53;101634.75;1045114;28;1200;-65
2022/07/18 17:31:07;;;;;;;;;;;;;;;26.30;46.58;101629.28;1045082;28;1116;-67
2022/07/18 17:31:58;;;;;;;;;;;;;;;26.31;46.49;101630.13;1045859;28;1176;-66
2022/07/18 17:32:48;;;;;;;;;;;;;;;26.31;46.93;101627.41;1043569;28;1178;-67
2022/07/18 17:33:39;;;;;;;;;;;;;;;26.31;46.60;101627.41;1042852;28;1040;-66
2022/07/18 17:34:29;;;;;;;;;;;;;;;26.32;46.74;101637.31;1045399;28;1135;-65
2022/07/18 17:35:20;;;;;;;;;;;;;;;26.32;46.79;101632.69;1042335;28;1045;-65
2022/07/18 17:36:10;;;;;;;;;;;;;;;26.33;46.65;101633.53;1043454;28;1136;-65
2022/07/18 17:37:01;;;;;;;;;;;;;;;26.33;46.58;101623.47;1042625;28;1208;-65
2022/07/18 17:37:51;;;;;;;;;;;;;;;26.35;46.71;101632.28;1044448;28;1182;-65
2022/07/18 17:38:42;;;;;;;;;;;;;;;26.35;46.77;101629.56;1044770;28;1128;-65
2022/07/18 17:39:32;;;;;;;;;;;;;;;26.36;46.34;101631.25;1044944;28;1320;-65
2022/07/18 17:40:22;;;;;;;;;;;;;;;26.37;46.68;101632.97;1044986;28;1158;-65
2022/07/18 17:41:13;;;;;;;;;;;;;;;26.37;46.70;101629.38;1043411;28;1221;-65
2022/07/18 17:42:03;;;;;;;;;;;;;;;26.36;46.66;101625.78;1043910;28;992;-65
2022/07/18 17:42:54;;;;;;;;;;;;;;;26.34;46.53;101632.47;1045460;28;1113;-66
2022/07/18 17:43:49;;;;;;;;;;;;;;;26.35;46.61;101629.56;1045346;28;929;-65
2022/07/18 17:44:39;;;;;;;;;;;;;;;26.39;46.68;101636.38;1046084;28;1150;-65
2022/07/18 17:45:30;;;;;;;;;;;;;;;26.38;46.56;101634.66;1043019;28;1249;-64
2022/07/18 17:46:25;;;;;;;;;;;;;;;26.38;46.71;101634.66;1047133;28;1263;-64
2022/07/18 17:47:15;;;;;;;;;;;;;;;26.38;46.82;101636.53;1044979;28;1015;-64
2022/07/18 17:48:06;;;;;;;;;;;;;;;26.41;46.61;101633.44;1045002;28;1258;-64
2022/07/18 17:48:56;;;;;;;;;;;;;;;26.42;46.66;101636.00;1043279;28;1068;-63
2022/07/18 17:49:46;;;;;;;;;;;;;;;26.41;46.45;101627.97;1043069;28;1180;-63
2022/07/18 17:50:37;;;;;;;;;;;;;;;26.38;46.50;101634.66;1042938;28;1023;-64
2022/07/18 17:51:27;;;;;;;;;;;;;;;26.42;46.67;101633.28;1043944;28;1081;-64
2022/07/18 17:52:18;;;;;;;;;;;;;;;26.41;46.64;101627.97;1044938;28;1099;-64
2022/07/18 17:53:08;;;;;;;;;;;;;;;26.45;46.52;101632.91;1043358;28;1128;-64
2022/07/18 17:53:59;;;;;;;;;;;;;;;26.43;46.42;101634.13;1044783;28;1111;-64
2022/07/18 17:54:49;;;;;;;;;;;;;;;26.44;46.41;101628.47;1043189;28;1025;-65
2022/07/18 17:55:40;;;;;;;;;;;;;;;26.44;46.44;101636.69;1042898;28;1186;-64
2022/07/18 17:56:30;;;;;;;;;;;;;;;26.46;46.55;101631.88;1043092;28;1186;-65
2022/07/18 17:57:21;;;;;;;;;;;;;;;26.45;46.52;101629.31;1044630;28;1981;-66
2022/07/18 17:58:11;;;;;;;;;;;;;;;26.44;46.69;101627.63;1043304;28;1135;-66
2022/07/18 17:59:02;;;;;;;;;;;;;;;26.45;46.35;101632.91;1042845;28;1116;-65
2022/07/18 17:59:52;;;;;;;;;;;;;;;26.43;46.63;101632.25;1043197;28;1112;-65
2022/07/18 18:00:42;;;;;;;;;;;;;;;26.50;46.49;101635.09;1042566;28;1200;-65
2022/07/18 18:01:33;;;;;;;;;;;;;;;26.46;46.55;101628.28;1043450;28;1022;-65
2022/07/18 18:02:23;;;;;;;;;;;;;;;26.46;46.65;101631.88;1042514;28;1064;-66
2022/07/18 18:03:14;;;;;;;;;;;;;;;26.44;46.70;101628.47;1045321;28;1062;-66
2022/07/18 18:04:04;;;;;;;;;;;;;;;26.44;46.55;101633.94;1042351;28;1137;-65
2022/07/18 18:04:55;;;;;;;;;;;;;;;26.46;46.47;101629.13;1044060;28;956;-65
2022/07/18 18:05:46;;;;;;;;;;;;;;;26.45;46.55;101630.19;1043849;28;1173;-66
2022/07/18 18:06:37;;;;;;;;;;;;;;;26.48;46.52;101629.81;1044269;28;1108;-66
2022/07/18 18:07:27;;;;;;;;;;;;;;;26.46;46.52;101626.41;1046119;28;1302;-65
2022/07/18 18:08:19;;;;;;;;;;;;;;;26.49;46.62;101623.31;1048360;28;1676;-65
2022/07/18 18:09:09;;;;;;;;;;;;;;;26.53;46.41;101621.88;1045816;28;943;-66
2022/07/18 18:10:00;;;;;;;;;;;;;;;26.50;46.51;101621.44;1049179;28;990;-66
2022/07/18 18:10:50;;;;;;;;;;;;;;;26.51;46.49;101626.69;1047970;28;1062;-65
2022/07/18 18:11:41;;;;;;;;;;;;;;;26.47;46.72;101624.53;1048561;28;944;-66
2022/07/18 18:12:31;;;;;;;;;;;;;;;26.49;46.65;101623.31;1047554;28;1220;-65
2022/07/18 18:13:22;;;;;;;;;;;;;;;26.51;46.67;101623.94;1046375;28;1233;-65
2022/07/18 18:14:12;;;;;;;;;;;;;;;26.52;46.75;101619.34;1047656;28;1185;-65
2022/07/18 18:15:03;;;;;;;;;;;;;;;26.51;46.73;101613.00;1049003;28;1103;-65
2022/07/18 18:15:53;;;;;;;;;;;;;;;26.52;46.83;101622.06;1047454;28;1194;-65
2022/07/18 18:16:44;;;;;;;;;;;;;;;26.47;46.98;101622.63;1047071;28;1128;-65
2022/07/18 18:17:34;;;;;;;;;;;;;;;26.48;46.78;101618.03;1047038;28;1917;-65
2022/07/18 18:18:24;;;;;;;;;;;;;;;26.50;46.73;101622.28;1043720;28;1243;-65
2022/07/18 18:19:15;;;;;;;;;;;;;;;26.53;46.85;101621.88;1045625;28;1175;-66
2022/07/18 18:20:05;;;;;;;;;;;;;;;26.50;46.64;101625.00;1048110;28;1040;-65
2022/07/18 18:20:56;;;;;;;;;;;;;;;26.49;46.74;101619.72;1047153;28;1210;-65
2022/07/18 18:21:46;;;;;;;;;;;;;;;26.48;46.70;101618.88;1047080;28;1207;-65
2022/07/18 18:22:37;;;;;;;;;;;;;;;26.49;46.81;101614.25;1046405;28;1215;-65
2022/07/18 18:23:27;;;;;;;;;;;;;;;26.54;46.73;101617.25;1052676;28;1229;-65
2022/07/18 18:24:18;;;;;;;;;;;;;;;26.54;46.87;101622.72;1051700;28;1107;-67
2022/07/18 18:25:08;;;;;;;;;;;;;;;26.55;46.87;101621.69;1048671;28;1116;-66
2022/07/18 18:25:59;;;;;;;;;;;;;;;26.56;46.89;101620.66;1049418;28;1125;-65
2022/07/18 18:26:49;;;;;;;;;;;;;;;26.58;46.80;101618.59;1050793;28;1078;-65
2022/07/18 18:27:41;;;;;;;;;;;;;;;26.67;47.05;101622.97;1052030;28;1034;-65
2022/07/18 18:28:32;;;;;;;;;;;;;;;26.61;46.75;101616.34;1050799;28;1051;-66
2022/07/18 18:29:22;;;;;;;;;;;;;;;26.61;47.00;101624.56;1051363;28;1082;-64
2022/07/18 18:30:13;;;;;;;;;;;;;;;26.57;46.90;101619.63;1048536;28;1174;-65
2022/07/18 18:31:04;;;;;;;;;;;;;;;26.60;46.89;101620.13;1046723;28;1060;-66
2022/07/18 18:31:55;;;;;;;;;;;;;;;26.55;46.99;101619.81;1048480;28;1196;-67
2022/07/18 18:32:45;;;;;;;;;;;;;;;26.57;47.03;101619.63;1047496;28;1263;-66
2022/07/18 18:33:36;;;;;;;;;;;;;;;26.54;47.05;101623.59;1047006;28;1263;-66
2022/07/18 18:34:26;;;;;;;;;;;;;;;26.55;46.96;101621.69;1047330;28;1204;-65
2022/07/18 18:35:18;;;;;;;;;;;;;;;26.50;47.24;101627.75;1053846;28;1330;-65
2022/07/18 18:36:09;;;;;;;;;;;;;;;26.53;47.10;101621.88;1054868;28;1283;-65
2022/07/18 18:36:59;;;;;;;;;;;;;;;26.55;47.28;101630.75;1047765;28;1221;-66
2022/07/18 18:37:51;;;;;;;;;;;;;;;26.56;47.14;101623.41;1047266;28;1977;-66
2022/07/18 18:38:42;;;;;;;;;;;;;;;26.56;47.10;101632.44;1049098;28;1334;-65
2022/07/18 18:39:32;;;;;;;;;;;;;;;26.60;47.17;101633.78;1047277;28;1192;-65
2022/07/18 18:40:23;;;;;;;;;;;;;;;26.61;47.16;101629.16;1049718;28;1132;-66
2022/07/18 18:41:13;;;;;;;;;;;;;;;26.60;47.18;101633.78;1051211;28;1199;-66
2022/07/18 18:42:05;;;;;;;;;;;;;;;26.58;47.22;101633.13;1055511;28;1152;-66
2022/07/18 18:42:55;;;;;;;;;;;;;;;26.57;47.33;101627.84;1054084;28;1171;-66
2022/07/18 18:43:46;;;;;;;;;;;;;;;26.60;47.02;101632.94;1049720;28;1061;-66
2022/07/18 18:44:36;;;;;;;;;;;;;;;26.57;47.29;101627.84;1050722;28;1235;-66
2022/07/18 18:45:27;;;;;;;;;;;;;;;26.57;47.31;101627.84;1051542;28;1058;-66
2022/07/18 18:46:18;;;;;;;;;;;;;;;26.57;47.44;101636.03;1050919;28;1203;-66
2022/07/18 18:47:08;;;;;;;;;;;;;;;26.59;47.17;101632.09;1050585;28;1399;-66
2022/07/18 18:47:59;;;;;;;;;;;;;;;26.55;47.26;101629.91;1049639;28;1217;-65
2022/07/18 18:48:49;;;;;;;;;;;;;;;26.59;47.25;101626.63;1051795;28;1297;-65
2022/07/18 18:49:40;;;;;;;;;;;;;;;26.57;47.26;101628.69;1049928;28;1213;-65
2022/07/18 18:50:30;;;;;;;;;;;;;;;26.57;47.34;101628.69;1053652;28;1205;-66
2022/07/18 18:51:20;;;;;;;;;;;;;;;26.56;47.32;101626.13;1045813;28;1198;-65
2022/07/18 18:52:13;;;;;;;;;;;;;;;26.54;47.39;101620.00;1052033;28;1125;-65
2022/07/18 18:53:03;;;;;;;;;;;;;;;26.59;47.39;101621.16;1051423;28;1270;-65
2022/07/18 18:53:54;;;;;;;;;;;;;;;26.59;47.33;101623.03;1050824;28;1247;-66
2022/07/18 18:54:44;;;;;;;;;;;;;;;26.60;47.43;101619.25;1051691;28;1201;-65
2022/07/18 18:55:35;;;;;;;;;;;;;;;26.59;47.37;101621.16;1051238;28;1231;-65
2022/07/18 18:56:25;;;;;;;;;;;;;;;26.57;47.39;101628.69;1051377;28;1143;-66
2022/07/18 18:57:16;;;;;;;;;;;;;;;26.56;47.38;101618.78;1051138;28;1148;-66
2022/07/18 18:58:08;;;;;;;;;;;;;;;26.62;47.31;101623.53;1050444;28;1737;-66
2022/07/18 18:58:58;;;;;;;;;;;;;;;26.58;47.50;101624.06;1050922;28;1216;-66
2022/07/18 18:59:49;;;;;;;;;;;;;;;26.57;47.41;101625.94;1051976;28;1090;-66
2022/07/18 19:00:39;;;;;;;;;;;;;;;26.57;47.41;101620.47;1050961;28;1136;-66
2022/07/18 19:01:30;;;;;;;;;;;;;;;26.58;47.47;101619.44;1051301;28;1110;-66
2022/07/18 19:02:20;;;;;;;;;;;;;;;26.60;47.44;101622.00;1050792;28;1095;-66
2022/07/18 19:03:11;;;;;;;;;;;;;;;26.56;47.38;101616.06;1050034;28;1363;-66
2022/07/18 19:04:03;;;;;;;;;;;;;;;26.65;47.49;101625.03;1052477;28;1082;-67
2022/07/18 19:04:54;;;;;;;;;;;;;;;26.66;47.21;101623.16;1050877;28;1201;-67
2022/07/18 19:05:44;;;;;;;;;;;;;;;26.65;47.41;101618.72;1046774;28;1388;-67
2022/07/18 19:06:35;;;;;;;;;;;;;;;26.62;47.56;101623.53;1044002;28;1103;-67
2022/07/18 19:07:25;;;;;;;;;;;;;;;26.60;47.42;101627.47;1045346;28;1166;-67
2022/07/18 19:08:15;;;;;;;;;;;;;;;26.61;47.63;101623.69;1051151;28;1079;-66
2022/07/18 19:09:06;;;;;;;;;;;;;;;26.61;47.48;101621.81;1049305;28;1403;-66
2022/07/18 19:09:56;;;;;;;;;;;;;;;26.60;47.88;101622.84;1050357;28;1537;-66
2022/07/18 19:10:47;;;;;;;;;;;;;;;26.62;47.48;101625.41;1049458;28;1137;-66
2022/07/18 19:11:37;;;;;;;;;;;;;;;26.61;47.68;101629.16;1051006;28;951;-67
2022/07/18 19:12:27;;;;;;;;;;;;;;;26.58;47.70;101630.38;1050061;28;1150;-66
2022/07/18 19:13:18;;;;;;;;;;;;;;;26.61;47.65;101629.16;1051246;28;1287;-66
2022/07/18 19:14:08;;;;;;;;;;;;;;;26.63;47.76;101625.22;1046683;28;1224;-67
2022/07/18 19:14:59;;;;;;;;;;;;;;;26.62;47.49;101631.72;1048514;28;651;-67
2022/07/18 19:15:51;;;;;;;;;;;;;;;26.61;47.75;101630.03;1051819;28;1179;-66
2022/07/18 19:16:42;;;;;;;;;;;;;;;26.65;47.71;101632.38;1053354;28;1174;-66
2022/07/18 19:17:32;;;;;;;;;;;;;;;26.66;47.90;101628.63;1053660;28;1909;-66
2022/07/18 19:18:22;;;;;;;;;;;;;;;26.67;47.87;101627.59;1051820;28;1051;-66
2022/07/18 19:19:13;;;;;;;;;;;;;;;26.63;47.95;101627.94;1047649;28;692;-67
2022/07/18 19:20:03;;;;;;;;;;;;;;;26.63;47.96;101627.94;1052680;28;618;-66
2022/07/18 19:20:54;;;;;;;;;;;;;;;26.65;47.86;101619.56;1057088;28;1236;-67
2022/07/18 19:21:44;;;;;;;;;;;;;;;26.63;47.83;101622.50;1050567;28;1273;-67
2022/07/18 19:22:35;;;;;;;;;;;;;;;26.65;47.91;101629.66;1050428;28;1196;-67
2022/07/18 19:23:25;;;;;;;;;;;;;;;26.65;47.85;101625.03;1051031;28;1143;-66
2022/07/18 19:24:15;;;;;;;;;;;;;;;26.65;47.90;101624.19;1051011;28;1129;-66
2022/07/18 19:25:06;;;;;;;;;;;;;;;26.69;47.90;101623.63;1050322;28;1240;-68
2022/07/18 19:25:56;;;;;;;;;;;;;;;26.65;47.89;101624.19;1045234;28;1163;-68
2022/07/18 19:26:47;;;;;;;;;;;;;;;26.66;47.96;101621.28;1048292;28;1230;-67
2022/07/18 19:27:37;;;;;;;;;;;;;;;26.63;48.15;101625.22;1048063;28;1107;-66
2022/07/18 19:28:28;;;;;;;;;;;;;;;26.63;48.09;101617.00;1045690;28;1095;-67
2022/07/18 19:29:18;;;;;;;;;;;;;;;26.67;48.17;101622.13;1051996;28;1090;-67
2022/07/18 19:30:09;;;;;;;;;;;;;;;26.68;47.75;101624.66;1051964;28;1278;-67
2022/07/18 19:31:01;;;;;;;;;;;;;;;26.67;48.03;101622.13;1050202;28;1130;-67
2022/07/18 19:31:52;;;;;;;;;;;;;;;26.69;48.05;101620.91;1050577;28;1216;-66
2022/07/18 19:32:42;;;;;;;;;;;;;;;26.68;48.00;101634.75;1051736;28;1195;-66
2022/07/18 19:33:33;;;;;;;;;;;;;;;26.68;48.09;101621.09;1051377;28;1289;-66
2022/07/18 19:34:23;;;;;;;;;;;;;;;26.68;48.12;101624.66;1048036;28;1175;-66
2022/07/18 19:35:13;;;;;;;;;;;;;;;26.71;47.99;101623.41;1045893;28;1147;-66
2022/07/18 19:36:04;;;;;;;;;;;;;;;26.70;48.16;101621.72;1051111;28;1019;-66
2022/07/18 19:36:55;;;;;;;;;;;;;;;26.65;48.17;101633.25;1050873;28;1169;-67
2022/07/18 19:37:46;;;;;;;;;;;;;;;26.63;48.21;101621.63;1051915;28;1898;-67
2022/07/18 19:38:36;;;;;;;;;;;;;;;26.62;48.50;101628.13;1051046;28;1062;-67
2022/07/18 19:39:27;;;;;;;;;;;;;;;26.68;48.42;101619.19;1046509;28;1123;-66
2022/07/18 19:40:17;;;;;;;;;;;;;;;26.78;48.18;101618.91;1046685;28;1098;-68
2022/07/18 19:41:07;;;;;;;;;;;;;;;26.93;48.22;101617.88;1051533;28;1095;-70
2022/07/18 19:41:58;;;;;;;;;;;;;;;26.87;48.39;101618.63;1051428;28;1407;-67
2022/07/18 19:42:48;;;;;;;;;;;;;;;26.81;48.37;101613.06;1051076;28;1309;-67
2022/07/18 19:43:39;;;;;;;;;;;;;;;26.72;48.48;101619.66;1050899;28;1078;-67
2022/07/18 19:44:29;;;;;;;;;;;;;;;26.67;48.58;101611.19;1052282;28;1238;-67
2022/07/18 19:45:20;;;;;;;;;;;;;;;26.65;48.69;101614.09;1049787;28;1133;-66
2022/07/18 19:46:10;;;;;;;;;;;;;;;26.63;48.63;101614.28;1051177;28;1086;-66
2022/07/18 19:47:01;;;;;;;;;;;;;;;26.57;48.76;101611.44;1047819;28;670;-67
2022/07/18 19:47:52;;;;;;;;;;;;;;;26.54;48.56;101611.78;1048135;28;621;-67
2022/07/18 19:48:44;;;;;;;;;;;;;;;26.60;48.30;101611.91;1050804;28;1464;-66
2022/07/18 19:49:34;;;;;;;;;;;;;;;26.63;47.76;101617.00;1052422;28;673;-67
2022/07/18 19:50:25;;;;;;;;;;;;;;;26.65;47.35;101616.84;1047654;28;720;-66
2022/07/18 19:51:15;;;;;;;;;;;;;;;26.67;47.46;101616.66;1048421;28;653;-68
2022/07/18 19:52:08;;;;;;;;;;;;;;;26.62;47.60;101622.66;1048475;28;666;-66
2022/07/18 19:52:58;;;;;;;;;;;;;;;26.55;47.39;101613.50;1040777;28;669;-67
2022/07/18 19:53:49;;;;;;;;;;;;;;;26.55;47.64;101622.53;1048027;28;1381;-66
2022/07/18 19:54:39;;;;;;;;;;;;;;;26.54;47.89;101618.13;1051919;28;1141;-66
2022/07/18 19:55:30;;;;;;;;;;;;;;;26.65;47.92;101616.84;1046362;28;750;-66
2022/07/18 19:56:20;;;;;;;;;;;;;;;26.50;48.46;101618.69;1047232;28;630;-66
2022/07/18 19:57:11;;;;;;;;;;;;;;;26.41;48.72;101617.91;1051178;28;670;-67
2022/07/18 19:58:04;;;;;;;;;;;;;;;26.50;48.47;101622.28;1047594;28;1176;-67
2022/07/18 19:58:56;;;;;;;;;;;;;;;26.59;48.34;101623.03;1047565;28;1072;-66
2022/07/18 19:59:47;;;;;;;;;;;;;;;26.56;48.11;101624.25;1047096;28;1218;-66
2022/07/18 20:00:37;;;;;;;;;;;;;;;26.61;48.20;101624.56;1048707;28;1179;-66
2022/07/18 20:01:27;;;;;;;;;;;;;;;26.55;48.25;101625.28;1047633;28;1238;-65
2022/07/18 20:02:18;;;;;;;;;;;;;;;26.66;48.03;101623.16;1046380;28;1008;-66
2022/07/18 20:03:08;;;;;;;;;;;;;;;26.59;48.06;101623.03;1048965;28;1078;-67
2022/07/18 20:03:59;;;;;;;;;;;;;;;26.63;47.90;101627.94;1046540;28;1033;-67
2022/07/18 20:04:49;;;;;;;;;;;;;;;26.66;47.64;101631.34;1046193;28;1120;-67
2022/07/18 20:05:40;;;;;;;;;;;;;;;26.57;48.01;101625.09;1046417;28;973;-66
2022/07/18 20:06:32;;;;;;;;;;;;;;;26.47;48.06;101621.78;1050365;28;1000;-67
2022/07/18 20:07:23;;;;;;;;;;;;;;;26.43;48.67;101626.78;1047539;28;1214;-65
2022/07/18 20:08:13;;;;;;;;;;;;;;;26.36;49.02;101623.06;1043805;28;1184;-66
2022/07/18 20:09:04;;;;;;;;;;;;;;;26.39;49.28;101619.97;1046770;28;1143;-66
2022/07/18 20:09:54;;;;;;;;;;;;;;;26.35;49.25;101621.34;1046392;28;1200;-67
2022/07/18 20:10:45;;;;;;;;;;;;;;;26.24;49.74;101619.88;1046903;28;1195;-66
2022/07/18 20:11:35;;;;;;;;;;;;;;;26.12;49.95;101621.38;1046787;28;1157;-66
2022/07/18 20:12:25;;;;;;;;;;;;;;;26.18;49.69;101622.50;1049626;28;1186;-66
2022/07/18 20:13:16;;;;;;;;;;;;;;;26.22;49.56;101618.38;1046730;28;1227;-67
2022/07/18 20:14:06;;;;;;;;;;;;;;;26.12;49.69;101617.78;1050870;28;1127;-66
2022/07/18 20:14:57;;;;;;;;;;;;;;;26.18;49.53;101614.28;1046595;28;1033;-67
2022/07/18 20:15:47;;;;;;;;;;;;;;;26.09;49.73;101612.69;1046068;28;1100;-67
2022/07/18 20:16:38;;;;;;;;;;;;;;;26.08;49.45;101613.72;1051180;28;988;-67
2022/07/18 20:17:28;;;;;;;;;;;;;;;26.11;49.36;101611.47;1050306;28;1985;-66
2022/07/18 20:18:18;;;;;;;;;;;;;;;26.12;49.21;101613.16;1046614;28;1118;-66
2022/07/18 20:19:09;;;;;;;;;;;;;;;26.04;49.41;101613.22;1050452;28;1019;-66
2022/07/18 20:19:59;;;;;;;;;;;;;;;26.09;49.18;101607.22;1049439;28;1083;-67
2022/07/18 20:20:50;;;;;;;;;;;;;;;26.13;48.93;101614.88;1050693;28;998;-66
2022/07/18 20:21:40;;;;;;;;;;;;;;;26.18;48.94;101614.28;1048982;28;1197;-66
2022/07/18 20:22:31;;;;;;;;;;;;;;;26.17;48.85;101613.44;1051467;28;1102;-66
2022/07/18 20:23:21;;;;;;;;;;;;;;;26.07;49.10;101617.47;1049224;28;1295;-66
2022/07/18 20:24:11;;;;;;;;;;;;;;;26.18;48.81;101608.84;1051674;28;1113;-67
2022/07/18 20:25:02;;;;;;;;;;;;;;;26.15;48.86;101622.88;1049706;28;1034;-66
2022/07/18 20:25:52;;;;;;;;;;;;;;;26.07;48.91;101609.28;1050365;28;1078;-66
2022/07/18 20:26:43;;;;;;;;;;;;;;;26.01;48.91;101615.44;1050230;28;1039;-67
2022/07/18 20:27:33;;;;;;;;;;;;;;;25.96;48.88;101610.56;1048119;28;1070;-66
2022/07/18 20:28:23;;;;;;;;;;;;;;;25.93;49.02;101614.50;1050431;28;1062;-66
2022/07/18 20:29:14;;;;;;;;;;;;;;;25.91;48.99;101616.56;1050414;28;1142;-67
2022/07/18 20:30:05;;;;;;;;;;;;;;;25.89;48.93;101623.22;1046799;28;1127;-68
2022/07/18 20:30:55;;;;;;;;;;;;;;;25.94;48.71;101613.47;1047142;28;1207;-66
2022/07/18 20:31:46;;;;;;;;;;;;;;;25.87;48.98;101620.66;1049863;28;1010;-66